Time,TemperatureF,DewpointF,PressureIn,WindDirection,WindDirectionDegrees,WindSpeedMPH,WindSpeedGustMPH,Humidity,HourlyPrecipIn,Conditions,Clouds,dailyrainin,SoftwareType,DateUTC
2013-09-05 00:12:00,65.0,60.0,30.11,NW,304,0.0,0.0,85,0.00,,,0.00,,2013-09-05 05:12:00,
2013-09-05 00:23:00,65.0,61.0,30.11,NW,304,0.0,0.0,86,0.00,,,0.00,,2013-09-05 05:23:00,
2013-09-05 00:52:00,64.0,60.0,30.11,NW,304,0.0,0.0,86,0.00,,,0.00,,2013-09-05 05:52:00,
2013-09-05 01:12:00,64.0,60.0,30.11,NW,304,0.0,0.0,86,0.00,,,0.00,,2013-09-05 06:12:00,
2013-09-05 01:22:00,64.0,60.0,30.11,NW,304,0.0,0.0,86,0.00,,,0.00,,2013-09-05 06:22:00,
2013-09-05 01:52:00,63.0,59.0,30.12,NW,304,0.0,0.0,86,0.00,,,0.00,,2013-09-05 06:52:00,
2013-09-05 02:12:00,63.0,59.0,30.12,NW,304,0.0,0.0,87,0.00,,,0.00,,2013-09-05 07:12:00,
2013-09-05 02:23:00,63.0,59.0,30.13,NW,304,0.0,0.0,87,0.00,,,0.00,,2013-09-05 07:23:00,
2013-09-05 02:52:00,63.0,59.0,30.13,NW,304,0.0,0.0,87,0.00,,,0.00,,2013-09-05 07:52:00,
2013-09-05 03:12:00,63.0,59.0,30.13,NW,304,0.0,0.0,87,0.00,,,0.00,,2013-09-05 08:12:00,
2013-09-05 03:22:00,63.0,59.0,30.13,NW,304,0.0,0.0,87,0.00,,,0.00,,2013-09-05 08:22:00,
2013-09-05 03:52:00,62.0,58.0,30.13,NW,304,0.0,0.0,87,0.00,,,0.00,,2013-09-05 08:52:00,
2013-09-05 04:11:00,62.0,58.0,30.14,NW,304,0.0,0.0,87,0.00,,,0.00,,2013-09-05 09:11:00,
2013-09-05 04:22:00,62.0,58.0,30.14,NW,304,0.0,0.0,87,0.00,,,0.00,,2013-09-05 09:22:00,
2013-09-05 04:54:00,62.0,58.0,30.14,NW,304,0.0,0.0,87,0.00,,,0.00,,2013-09-05 09:54:00,
2013-09-05 05:12:00,62.0,58.0,30.14,NW,304,0.0,0.0,87,0.00,,,0.00,,2013-09-05 10:12:00,
2013-09-05 05:23:00,62.0,58.0,30.14,NW,304,0.0,0.0,87,0.00,,,0.00,,2013-09-05 10:23:00,
2013-09-05 05:53:00,61.0,57.0,30.14,NW,304,0.0,0.0,88,0.00,,,0.00,,2013-09-05 10:53:00,
2013-09-05 06:12:00,61.0,57.0,30.14,NW,304,0.0,0.0,87,0.00,,,0.00,,2013-09-05 11:12:00,
2013-09-05 06:22:00,61.0,57.0,30.14,NW,304,0.0,0.0,87,0.00,,,0.00,,2013-09-05 11:22:00,
2013-09-05 06:52:00,61.0,57.0,30.15,NW,304,0.0,0.0,87,0.00,,,0.00,,2013-09-05 11:52:00,
2013-09-05 07:12:00,61.0,57.0,30.15,NW,304,0.0,0.0,87,0.00,,,0.00,,2013-09-05 12:12:00,
2013-09-05 07:21:00,61.0,57.0,30.16,NW,304,0.0,0.0,88,0.00,,,0.00,,2013-09-05 12:21:00,
2013-09-05 07:42:00,61.0,57.0,30.16,NW,304,0.0,0.0,88,0.00,,,0.00,,2013-09-05 12:42:00,
2013-09-05 07:52:00,61.0,57.0,30.16,NW,304,0.0,0.0,88,0.00,,,0.00,,2013-09-05 12:52:00,
2013-09-05 08:12:00,62.0,58.0,30.16,NW,304,0.0,0.0,88,0.00,,,0.00,,2013-09-05 13:12:00,
2013-09-05 08:21:00,62.0,59.0,30.17,NW,304,0.0,0.0,89,0.00,,,0.00,,2013-09-05 13:21:00,
2013-09-05 08:53:00,64.0,61.0,30.17,NW,304,0.0,0.0,89,0.00,,,0.00,,2013-09-05 13:53:00,
2013-09-05 09:12:00,66.0,63.0,30.17,NW,304,0.0,1.0,89,0.00,,,0.00,,2013-09-05 14:12:00,
2013-09-05 09:22:00,67.0,63.0,30.18,NW,304,0.0,0.0,88,0.00,,,0.00,,2013-09-05 14:22:00,
2013-09-05 09:42:00,68.0,62.0,30.18,NW,304,0.0,1.0,81,0.00,,,0.00,,2013-09-05 14:42:00,
2013-09-05 09:52:00,71.0,63.0,30.18,NW,304,0.0,0.0,75,0.00,,,0.00,,2013-09-05 14:52:00,
2013-09-05 10:22:00,76.0,64.0,30.18,NW,304,0.0,1.0,67,0.00,,,0.00,,2013-09-05 15:22:00,
2013-09-05 10:54:00,80.0,64.0,30.19,NW,309,1.0,3.0,58,0.00,,,0.00,,2013-09-05 15:54:00,
2013-09-05 11:24:00,83.0,65.0,30.19,East,98,0.0,3.0,54,0.00,,,0.00,,2013-09-05 16:24:00,
2013-09-05 11:43:00,84.0,65.0,30.19,SSE,148,0.0,3.0,53,0.00,,,0.00,,2013-09-05 16:43:00,
2013-09-05 11:54:00,84.0,63.0,30.19,ESE,105,0.0,3.0,49,0.00,,,0.00,,2013-09-05 16:54:00,
2013-09-05 12:12:00,85.0,63.0,30.19,ESE,120,0.0,2.0,48,0.00,,,0.00,,2013-09-05 17:12:00,
2013-09-05 12:23:00,86.0,66.0,30.19,NNE,31,0.0,1.0,52,0.00,,,0.00,,2013-09-05 17:23:00,
2013-09-05 12:43:00,88.0,65.0,30.19,East,85,0.0,1.0,46,0.00,,,0.00,,2013-09-05 17:43:00,
2013-09-05 12:52:00,88.0,66.0,30.19,East,90,0.0,1.0,48,0.00,,,0.00,,2013-09-05 17:52:00,
2013-09-05 13:12:00,88.0,66.0,30.18,ENE,74,0.0,2.0,49,0.00,,,0.00,,2013-09-05 18:12:00,
2013-09-05 13:22:00,88.0,63.0,30.18,NW,316,0.0,3.0,44,0.00,,,0.00,,2013-09-05 18:22:00,
2013-09-05 13:52:00,89.0,65.0,30.17,SE,134,0.0,1.0,46,0.00,,,0.00,,2013-09-05 18:52:00,
2013-09-05 14:11:00,90.0,65.0,30.17,NW,304,0.0,3.0,44,0.00,,,0.00,,2013-09-05 19:11:00,
2013-09-05 14:22:00,91.0,67.0,30.16,SE,126,0.0,1.0,46,0.00,,,0.00,,2013-09-05 19:22:00,
2013-09-05 14:42:00,91.0,63.0,30.16,SE,131,0.0,3.0,40,0.00,,,0.00,,2013-09-05 19:42:00,
2013-09-05 14:52:00,91.0,65.0,30.16,SE,130,0.0,2.0,42,0.00,,,0.00,,2013-09-05 19:52:00,
2013-09-05 15:22:00,90.0,65.0,30.15,SE,126,0.0,1.0,44,0.00,,,0.00,,2013-09-05 20:22:00,
2013-09-05 15:52:00,89.0,65.0,30.15,SE,126,0.0,1.0,45,0.00,,,0.00,,2013-09-05 20:52:00,
2013-09-05 16:21:00,90.0,65.0,30.14,ENE,58,0.0,1.0,44,0.00,,,0.00,,2013-09-05 21:21:00,
2013-09-05 16:54:00,91.0,65.0,30.14,ENE,62,0.0,1.0,43,0.00,,,0.00,,2013-09-05 21:54:00,
2013-09-05 17:13:00,90.0,65.0,30.14,ENE,63,0.0,1.0,44,0.00,,,0.00,,2013-09-05 22:13:00,
2013-09-05 17:24:00,90.0,64.0,30.14,ENE,57,0.0,1.0,43,0.00,,,0.00,,2013-09-05 22:24:00,
2013-09-05 17:53:00,89.0,66.0,30.14,ESE,115,0.0,2.0,47,0.00,,,0.00,,2013-09-05 22:53:00,
2013-09-05 18:12:00,88.0,65.0,30.13,ESE,115,0.0,1.0,47,0.00,,,0.00,,2013-09-05 23:12:00,
2013-09-05 18:22:00,87.0,66.0,30.13,ESE,115,0.0,0.0,50,0.00,,,0.00,,2013-09-05 23:22:00,
2013-09-05 18:53:00,83.0,68.0,30.13,ESE,107,1.0,3.0,60,0.00,,,0.00,,2013-09-05 23:53:00,
2013-09-05 19:12:00,82.0,69.0,30.13,ESE,108,0.0,1.0,64,0.00,,,0.00,,2013-09-06 00:12:00,
2013-09-05 19:22:00,80.0,67.0,30.14,ESE,113,1.0,3.0,65,0.00,,,0.00,,2013-09-06 00:22:00,
2013-09-05 19:42:00,79.0,67.0,30.14,SSE,151,0.0,6.0,66,0.00,,,0.00,,2013-09-06 00:42:00,
2013-09-05 19:52:00,78.0,66.0,30.14,ESE,122,1.0,3.0,66,0.00,,,0.00,,2013-09-06 00:52:00,
2013-09-05 20:11:00,77.0,65.0,30.15,SE,124,0.0,1.0,66,0.00,,,0.00,,2013-09-06 01:11:00,
2013-09-05 20:22:00,75.0,62.0,30.15,SE,134,1.0,8.0,65,0.00,,,0.00,,2013-09-06 01:22:00,
2013-09-05 20:42:00,74.0,62.0,30.16,ESE,103,0.0,3.0,66,0.00,,,0.00,,2013-09-06 01:42:00,
2013-09-05 20:52:00,73.0,61.0,30.16,SSE,155,1.0,3.0,65,0.00,,,0.00,,2013-09-06 01:52:00,
2013-09-05 21:22:00,72.0,60.0,30.17,ENE,67,0.0,1.0,66,0.00,,,0.00,,2013-09-06 02:22:00,
2013-09-05 21:42:00,72.0,60.0,30.17,ESE,103,0.0,1.0,67,0.00,,,0.00,,2013-09-06 02:42:00,
2013-09-05 21:52:00,71.0,59.0,30.17,ESE,103,0.0,0.0,67,0.00,,,0.00,,2013-09-06 02:52:00,
2013-09-05 22:22:00,70.0,59.0,30.18,ESE,103,0.0,0.0,69,0.00,,,0.00,,2013-09-06 03:22:00,
2013-09-05 22:55:00,68.0,59.0,30.18,ESE,103,0.0,0.0,72,0.00,,,0.00,,2013-09-06 03:55:00,
2013-09-05 23:14:00,68.0,59.0,30.18,ESE,103,0.0,0.0,72,0.00,,,0.00,,2013-09-06 04:14:00,
2013-09-05 23:23:00,67.0,58.0,30.18,ESE,103,0.0,1.0,73,0.00,,,0.00,,2013-09-06 04:23:00,
2013-09-05 23:54:00,67.0,58.0,30.18,ESE,103,0.0,3.0,74,0.00,,,0.00,,2013-09-06 04:54:00,